sensor_id;sensor_type;location;lat;lon;timestamp;P1;durP1;ratioP1;P2;durP2;ratioP2
20122;SDS011;10222;50.848;4.336;2023-09-08T00:02:04;7.32;;;5.15;;
20122;SDS011;10222;50.848;4.336;2023-09-08T00:04:30;8.98;;;5.35;;
20122;SDS011;10222;50.848;4.336;2023-09-08T00:06:58;9.52;;;5.80;;
20122;SDS011;10222;50.848;4.336;2023-09-08T00:09:24;10.55;;;5.28;;
20122;SDS011;10222;50.848;4.336;2023-09-08T00:11:50;7.80;;;5.45;;
20122;SDS011;10222;50.848;4.336;2023-09-08T00:14:15;11.43;;;5.63;;
20122;SDS011;10222;50.848;4.336;2023-09-08T00:16:41;7.80;;;5.43;;
20122;SDS011;10222;50.848;4.336;2023-09-08T00:19:08;10.80;;;5.50;;
20122;SDS011;10222;50.848;4.336;2023-09-08T00:21:34;9.75;;;5.53;;
20122;SDS011;10222;50.848;4.336;2023-09-08T00:24:00;11.35;;;5.38;;
20122;SDS011;10222;50.848;4.336;2023-09-08T00:26:26;7.18;;;5.13;;
20122;SDS011;10222;50.848;4.336;2023-09-08T00:28:52;9.32;;;5.57;;
20122;SDS011;10222;50.848;4.336;2023-09-08T00:31:18;8.32;;;5.05;;
20122;SDS011;10222;50.848;4.336;2023-09-08T00:33:44;8.25;;;5.15;;
20122;SDS011;10222;50.848;4.336;2023-09-08T00:36:10;8.30;;;5.70;;
20122;SDS011;10222;50.848;4.336;2023-09-08T00:38:36;9.93;;;5.88;;
20122;SDS011;10222;50.848;4.336;2023-09-08T00:41:04;11.60;;;5.50;;
20122;SDS011;10222;50.848;4.336;2023-09-08T00:43:30;10.38;;;5.45;;
20122;SDS011;10222;50.848;4.336;2023-09-08T00:45:56;10.07;;;5.25;;
20122;SDS011;10222;50.848;4.336;2023-09-08T00:48:24;7.03;;;4.45;;
20122;SDS011;10222;50.848;4.336;2023-09-08T00:50:50;6.55;;;4.80;;
20122;SDS011;10222;50.848;4.336;2023-09-08T00:53:16;9.63;;;5.38;;
20122;SDS011;10222;50.848;4.336;2023-09-08T00:55:42;8.80;;;5.50;;
20122;SDS011;10222;50.848;4.336;2023-09-08T00:58:09;8.05;;;5.15;;
20122;SDS011;10222;50.848;4.336;2023-09-08T01:00:36;7.25;;;5.13;;
20122;SDS011;10222;50.848;4.336;2023-09-08T01:03:03;6.80;;;4.65;;
20122;SDS011;10222;50.848;4.336;2023-09-08T01:05:29;6.22;;;4.30;;
20122;SDS011;10222;50.848;4.336;2023-09-08T01:07:55;6.78;;;4.55;;
20122;SDS011;10222;50.848;4.336;2023-09-08T01:10:21;7.13;;;5.07;;
20122;SDS011;10222;50.848;4.336;2023-09-08T01:12:49;8.27;;;5.10;;
20122;SDS011;10222;50.848;4.336;2023-09-08T01:15:16;8.02;;;4.38;;
20122;SDS011;10222;50.848;4.336;2023-09-08T01:17:42;11.65;;;5.13;;
20122;SDS011;10222;50.848;4.336;2023-09-08T01:20:19;5.65;;;4.43;;
20122;SDS011;10222;50.848;4.336;2023-09-08T01:25:31;8.80;;;4.75;;
20122;SDS011;10222;50.848;4.336;2023-09-08T01:28:00;5.78;;;4.15;;
20122;SDS011;10222;50.848;4.336;2023-09-08T01:30:27;7.55;;;4.45;;
20122;SDS011;10222;50.848;4.336;2023-09-08T01:32:55;5.38;;;4.00;;
20122;SDS011;10222;50.848;4.336;2023-09-08T01:35:21;5.15;;;3.92;;
20122;SDS011;10222;50.848;4.336;2023-09-08T01:37:48;5.93;;;4.13;;
20122;SDS011;10222;50.848;4.336;2023-09-08T01:40:14;5.90;;;4.28;;
20122;SDS011;10222;50.848;4.336;2023-09-08T01:42:40;8.50;;;4.57;;
20122;SDS011;10222;50.848;4.336;2023-09-08T01:45:07;6.72;;;4.53;;
20122;SDS011;10222;50.848;4.336;2023-09-08T01:47:33;7.57;;;4.13;;
20122;SDS011;10222;50.848;4.336;2023-09-08T01:49:59;6.03;;;4.20;;
20122;SDS011;10222;50.848;4.336;2023-09-08T01:52:26;5.80;;;3.83;;
20122;SDS011;10222;50.848;4.336;2023-09-08T01:54:52;7.22;;;4.50;;
20122;SDS011;10222;50.848;4.336;2023-09-08T01:57:18;7.28;;;3.95;;
20122;SDS011;10222;50.848;4.336;2023-09-08T01:59:44;5.55;;;4.32;;
20122;SDS011;10222;50.848;4.336;2023-09-08T02:02:10;5.93;;;4.18;;
20122;SDS011;10222;50.848;4.336;2023-09-08T02:04:37;6.05;;;4.55;;
20122;SDS011;10222;50.848;4.336;2023-09-08T02:07:03;7.63;;;4.63;;
20122;SDS011;10222;50.848;4.336;2023-09-08T02:09:33;7.30;;;4.53;;
20122;SDS011;10222;50.848;4.336;2023-09-08T02:12:00;7.70;;;4.20;;
20122;SDS011;10222;50.848;4.336;2023-09-08T02:14:26;6.25;;;4.35;;
20122;SDS011;10222;50.848;4.336;2023-09-08T02:16:52;6.07;;;4.40;;
20122;SDS011;10222;50.848;4.336;2023-09-08T02:19:18;7.05;;;4.25;;
20122;SDS011;10222;50.848;4.336;2023-09-08T02:21:44;7.20;;;4.68;;
20122;SDS011;10222;50.848;4.336;2023-09-08T02:24:10;6.35;;;4.50;;
20122;SDS011;10222;50.848;4.336;2023-09-08T02:26:37;5.73;;;4.30;;
20122;SDS011;10222;50.848;4.336;2023-09-08T02:29:04;5.80;;;4.03;;
20122;SDS011;10222;50.848;4.336;2023-09-08T02:31:30;7.28;;;4.95;;
20122;SDS011;10222;50.848;4.336;2023-09-08T02:33:56;7.63;;;4.63;;
20122;SDS011;10222;50.848;4.336;2023-09-08T02:36:22;6.63;;;4.93;;
20122;SDS011;10222;50.848;4.336;2023-09-08T02:38:54;4.82;;;4.03;;
20122;SDS011;10222;50.848;4.336;2023-09-08T02:41:21;5.35;;;4.15;;
20122;SDS011;10222;50.848;4.336;2023-09-08T02:43:47;7.00;;;4.60;;
20122;SDS011;10222;50.848;4.336;2023-09-08T02:46:13;5.90;;;4.85;;
20122;SDS011;10222;50.848;4.336;2023-09-08T02:48:40;5.43;;;4.40;;
20122;SDS011;10222;50.848;4.336;2023-09-08T02:51:06;7.90;;;4.75;;
20122;SDS011;10222;50.848;4.336;2023-09-08T02:53:33;6.72;;;4.57;;
20122;SDS011;10222;50.848;4.336;2023-09-08T02:55:59;5.93;;;4.50;;
20122;SDS011;10222;50.848;4.336;2023-09-08T02:58:25;7.03;;;4.63;;
20122;SDS011;10222;50.848;4.336;2023-09-08T03:00:52;7.28;;;4.60;;
20122;SDS011;10222;50.848;4.336;2023-09-08T03:03:19;9.75;;;4.93;;
20122;SDS011;10222;50.848;4.336;2023-09-08T03:05:45;6.80;;;4.97;;
20122;SDS011;10222;50.848;4.336;2023-09-08T03:08:12;6.00;;;4.43;;
20122;SDS011;10222;50.848;4.336;2023-09-08T03:10:38;6.45;;;4.70;;
20122;SDS011;10222;50.848;4.336;2023-09-08T03:13:04;7.15;;;4.63;;
20122;SDS011;10222;50.848;4.336;2023-09-08T03:15:30;7.43;;;4.95;;
20122;SDS011;10222;50.848;4.336;2023-09-08T03:17:57;9.43;;;4.73;;
20122;SDS011;10222;50.848;4.336;2023-09-08T03:20:26;8.50;;;5.07;;
20122;SDS011;10222;50.848;4.336;2023-09-08T03:22:53;5.85;;;4.70;;
20122;SDS011;10222;50.848;4.336;2023-09-08T03:25:19;8.38;;;5.13;;
20122;SDS011;10222;50.848;4.336;2023-09-08T03:27:45;7.37;;;4.97;;
20122;SDS011;10222;50.848;4.336;2023-09-08T03:30:12;9.48;;;5.32;;
20122;SDS011;10222;50.848;4.336;2023-09-08T03:32:38;6.38;;;4.78;;
20122;SDS011;10222;50.848;4.336;2023-09-08T03:35:04;7.65;;;5.07;;
20122;SDS011;10222;50.848;4.336;2023-09-08T03:37:34;9.37;;;4.90;;
20122;SDS011;10222;50.848;4.336;2023-09-08T03:40:00;9.30;;;5.23;;
20122;SDS011;10222;50.848;4.336;2023-09-08T03:42:26;6.20;;;4.68;;
20122;SDS011;10222;50.848;4.336;2023-09-08T03:44:52;8.80;;;4.72;;
20122;SDS011;10222;50.848;4.336;2023-09-08T03:47:18;9.33;;;5.87;;
20122;SDS011;10222;50.848;4.336;2023-09-08T03:49:44;10.20;;;5.40;;
20122;SDS011;10222;50.848;4.336;2023-09-08T03:52:10;7.25;;;5.20;;
20122;SDS011;10222;50.848;4.336;2023-09-08T03:54:37;8.65;;;5.25;;
20122;SDS011;10222;50.848;4.336;2023-09-08T03:57:03;7.55;;;4.78;;
20122;SDS011;10222;50.848;4.336;2023-09-08T03:59:29;7.10;;;5.30;;
20122;SDS011;10222;50.848;4.336;2023-09-08T04:01:55;7.72;;;4.97;;
20122;SDS011;10222;50.848;4.336;2023-09-08T04:04:21;7.47;;;4.37;;
20122;SDS011;10222;50.848;4.336;2023-09-08T04:06:47;6.85;;;5.03;;
20122;SDS011;10222;50.848;4.336;2023-09-08T04:09:13;7.00;;;4.82;;
20122;SDS011;10222;50.848;4.336;2023-09-08T04:11:39;8.70;;;5.13;;
20122;SDS011;10222;50.848;4.336;2023-09-08T04:14:05;7.33;;;4.87;;
20122;SDS011;10222;50.848;4.336;2023-09-08T04:16:31;9.47;;;5.00;;
20122;SDS011;10222;50.848;4.336;2023-09-08T04:18:57;7.13;;;5.20;;
20122;SDS011;10222;50.848;4.336;2023-09-08T04:21:23;8.57;;;4.82;;
20122;SDS011;10222;50.848;4.336;2023-09-08T04:23:49;8.30;;;4.75;;
20122;SDS011;10222;50.848;4.336;2023-09-08T04:26:15;7.90;;;5.20;;
20122;SDS011;10222;50.848;4.336;2023-09-08T04:28:42;6.60;;;4.70;;
20122;SDS011;10222;50.848;4.336;2023-09-08T04:31:08;8.47;;;4.83;;
20122;SDS011;10222;50.848;4.336;2023-09-08T04:33:34;7.43;;;4.70;;
20122;SDS011;10222;50.848;4.336;2023-09-08T04:36:00;7.40;;;5.17;;
20122;SDS011;10222;50.848;4.336;2023-09-08T04:38:26;5.70;;;4.57;;
20122;SDS011;10222;50.848;4.336;2023-09-08T04:40:52;7.93;;;4.53;;
20122;SDS011;10222;50.848;4.336;2023-09-08T04:43:18;6.23;;;4.40;;
20122;SDS011;10222;50.848;4.336;2023-09-08T04:45:45;6.47;;;4.50;;
20122;SDS011;10222;50.848;4.336;2023-09-08T04:48:11;7.07;;;4.93;;
20122;SDS011;10222;50.848;4.336;2023-09-08T04:50:37;7.60;;;5.23;;
20122;SDS011;10222;50.848;4.336;2023-09-08T04:53:03;6.83;;;4.97;;
20122;SDS011;10222;50.848;4.336;2023-09-08T04:55:29;7.70;;;4.80;;
20122;SDS011;10222;50.848;4.336;2023-09-08T04:57:55;7.63;;;5.20;;
20122;SDS011;10222;50.848;4.336;2023-09-08T05:00:21;6.80;;;4.60;;
20122;SDS011;10222;50.848;4.336;2023-09-08T05:02:47;7.13;;;5.20;;
20122;SDS011;10222;50.848;4.336;2023-09-08T05:05:13;10.77;;;5.77;;
20122;SDS011;10222;50.848;4.336;2023-09-08T05:07:39;8.23;;;5.45;;
20122;SDS011;10222;50.848;4.336;2023-09-08T05:10:05;8.57;;;5.70;;
20122;SDS011;10222;50.848;4.336;2023-09-08T05:12:31;11.00;;;5.97;;
20122;SDS011;10222;50.848;4.336;2023-09-08T05:14:57;14.13;;;7.15;;
20122;SDS011;10222;50.848;4.336;2023-09-08T05:17:30;10.40;;;6.10;;
20122;SDS011;10222;50.848;4.336;2023-09-08T05:19:56;7.90;;;5.70;;
20122;SDS011;10222;50.848;4.336;2023-09-08T05:22:22;9.03;;;6.10;;
20122;SDS011;10222;50.848;4.336;2023-09-08T05:24:48;15.95;;;6.88;;
20122;SDS011;10222;50.848;4.336;2023-09-08T05:27:14;10.60;;;6.17;;
20122;SDS011;10222;50.848;4.336;2023-09-08T05:29:40;12.10;;;6.25;;
20122;SDS011;10222;50.848;4.336;2023-09-08T05:32:06;7.97;;;5.80;;
20122;SDS011;10222;50.848;4.336;2023-09-08T05:34:32;11.13;;;6.00;;
20122;SDS011;10222;50.848;4.336;2023-09-08T05:36:59;12.43;;;6.17;;
20122;SDS011;10222;50.848;4.336;2023-09-08T05:39:25;12.53;;;6.53;;
20122;SDS011;10222;50.848;4.336;2023-09-08T05:41:51;8.70;;;5.83;;
20122;SDS011;10222;50.848;4.336;2023-09-08T05:44:17;10.20;;;5.97;;
20122;SDS011;10222;50.848;4.336;2023-09-08T05:46:43;9.73;;;5.83;;
20122;SDS011;10222;50.848;4.336;2023-09-08T05:49:09;11.15;;;6.00;;
20122;SDS011;10222;50.848;4.336;2023-09-08T05:51:35;8.00;;;5.70;;
20122;SDS011;10222;50.848;4.336;2023-09-08T05:54:01;9.17;;;5.67;;
20122;SDS011;10222;50.848;4.336;2023-09-08T05:56:30;11.53;;;5.33;;
20122;SDS011;10222;50.848;4.336;2023-09-08T05:58:57;10.13;;;5.53;;
20122;SDS011;10222;50.848;4.336;2023-09-08T06:01:23;6.57;;;4.85;;
20122;SDS011;10222;50.848;4.336;2023-09-08T06:03:49;9.40;;;6.07;;
20122;SDS011;10222;50.848;4.336;2023-09-08T06:06:15;11.70;;;6.47;;
20122;SDS011;10222;50.848;4.336;2023-09-08T06:08:41;10.38;;;6.32;;
20122;SDS011;10222;50.848;4.336;2023-09-08T06:11:07;11.05;;;6.00;;
20122;SDS011;10222;50.848;4.336;2023-09-08T06:13:33;8.47;;;5.80;;
20122;SDS011;10222;50.848;4.336;2023-09-08T06:16:00;12.07;;;5.82;;
20122;SDS011;10222;50.848;4.336;2023-09-08T06:18:27;12.65;;;6.35;;
20122;SDS011;10222;50.848;4.336;2023-09-08T06:20:57;16.23;;;6.85;;
20122;SDS011;10222;50.848;4.336;2023-09-08T06:23:23;8.00;;;6.00;;
20122;SDS011;10222;50.848;4.336;2023-09-08T06:25:49;12.40;;;6.60;;
20122;SDS011;10222;50.848;4.336;2023-09-08T06:28:15;13.23;;;6.72;;
20122;SDS011;10222;50.848;4.336;2023-09-08T06:30:41;14.57;;;6.37;;
20122;SDS011;10222;50.848;4.336;2023-09-08T06:33:08;12.90;;;6.33;;
20122;SDS011;10222;50.848;4.336;2023-09-08T06:35:34;10.52;;;6.38;;
20122;SDS011;10222;50.848;4.336;2023-09-08T06:38:00;13.15;;;6.30;;
20122;SDS011;10222;50.848;4.336;2023-09-08T06:40:26;12.32;;;6.13;;
20122;SDS011;10222;50.848;4.336;2023-09-08T06:42:52;12.60;;;6.13;;
20122;SDS011;10222;50.848;4.336;2023-09-08T06:45:18;11.70;;;6.45;;
20122;SDS011;10222;50.848;4.336;2023-09-08T06:47:44;13.02;;;6.25;;
20122;SDS011;10222;50.848;4.336;2023-09-08T06:50:10;12.68;;;6.30;;
20122;SDS011;10222;50.848;4.336;2023-09-08T06:52:36;10.10;;;6.50;;
20122;SDS011;10222;50.848;4.336;2023-09-08T06:55:02;9.82;;;6.25;;
20122;SDS011;10222;50.848;4.336;2023-09-08T06:57:28;14.52;;;7.00;;
20122;SDS011;10222;50.848;4.336;2023-09-08T06:59:54;13.57;;;7.10;;
20122;SDS011;10222;50.848;4.336;2023-09-08T07:02:20;15.13;;;6.97;;
20122;SDS011;10222;50.848;4.336;2023-09-08T07:04:47;10.57;;;6.57;;
20122;SDS011;10222;50.848;4.336;2023-09-08T07:07:13;9.82;;;5.90;;
20122;SDS011;10222;50.848;4.336;2023-09-08T07:09:39;11.77;;;6.13;;
20122;SDS011;10222;50.848;4.336;2023-09-08T07:12:05;10.10;;;6.75;;
20122;SDS011;10222;50.848;4.336;2023-09-08T07:14:31;12.48;;;6.25;;
20122;SDS011;10222;50.848;4.336;2023-09-08T07:16:58;10.95;;;6.97;;
20122;SDS011;10222;50.848;4.336;2023-09-08T07:19:25;10.77;;;6.63;;
20122;SDS011;10222;50.848;4.336;2023-09-08T07:21:51;11.80;;;6.57;;
20122;SDS011;10222;50.848;4.336;2023-09-08T07:24:17;10.13;;;6.07;;
20122;SDS011;10222;50.848;4.336;2023-09-08T07:26:43;11.68;;;6.43;;
20122;SDS011;10222;50.848;4.336;2023-09-08T07:29:09;11.52;;;6.45;;
20122;SDS011;10222;50.848;4.336;2023-09-08T07:31:35;13.75;;;5.88;;
20122;SDS011;10222;50.848;4.336;2023-09-08T07:34:01;13.65;;;5.78;;
20122;SDS011;10222;50.848;4.336;2023-09-08T07:36:27;11.55;;;6.20;;
20122;SDS011;10222;50.848;4.336;2023-09-08T07:38:54;8.45;;;5.47;;
20122;SDS011;10222;50.848;4.336;2023-09-08T07:41:19;8.32;;;6.03;;
20122;SDS011;10222;50.848;4.336;2023-09-08T07:43:45;10.65;;;5.95;;
20122;SDS011;10222;50.848;4.336;2023-09-08T07:46:11;10.45;;;5.82;;
20122;SDS011;10222;50.848;4.336;2023-09-08T07:48:37;10.55;;;5.88;;
20122;SDS011;10222;50.848;4.336;2023-09-08T07:51:03;9.60;;;5.72;;
20122;SDS011;10222;50.848;4.336;2023-09-08T07:53:30;9.88;;;5.95;;
20122;SDS011;10222;50.848;4.336;2023-09-08T07:55:56;7.22;;;5.45;;
20122;SDS011;10222;50.848;4.336;2023-09-08T07:58:22;9.95;;;5.80;;
20122;SDS011;10222;50.848;4.336;2023-09-08T08:00:48;10.02;;;5.47;;
20122;SDS011;10222;50.848;4.336;2023-09-08T08:03:14;9.85;;;5.97;;
20122;SDS011;10222;50.848;4.336;2023-09-08T08:05:40;11.75;;;5.82;;
20122;SDS011;10222;50.848;4.336;2023-09-08T08:08:06;8.50;;;5.18;;
20122;SDS011;10222;50.848;4.336;2023-09-08T08:10:34;12.02;;;5.20;;
20122;SDS011;10222;50.848;4.336;2023-09-08T08:13:00;7.45;;;5.60;;
20122;SDS011;10222;50.848;4.336;2023-09-08T08:15:40;10.40;;;5.03;;
20122;SDS011;10222;50.848;4.336;2023-09-08T08:18:08;8.60;;;5.28;;
20122;SDS011;10222;50.848;4.336;2023-09-08T08:20:37;9.68;;;5.85;;
20122;SDS011;10222;50.848;4.336;2023-09-08T08:23:04;8.15;;;5.18;;
20122;SDS011;10222;50.848;4.336;2023-09-08T08:25:30;11.18;;;5.35;;
20122;SDS011;10222;50.848;4.336;2023-09-08T08:27:57;16.65;;;5.65;;
20122;SDS011;10222;50.848;4.336;2023-09-08T08:30:24;13.13;;;5.82;;
20122;SDS011;10222;50.848;4.336;2023-09-08T08:32:50;8.35;;;4.90;;
20122;SDS011;10222;50.848;4.336;2023-09-08T08:35:18;9.70;;;5.90;;
20122;SDS011;10222;50.848;4.336;2023-09-08T08:37:44;8.43;;;5.32;;
20122;SDS011;10222;50.848;4.336;2023-09-08T08:40:10;8.77;;;5.70;;
20122;SDS011;10222;50.848;4.336;2023-09-08T08:42:39;13.10;;;5.05;;
20122;SDS011;10222;50.848;4.336;2023-09-08T08:45:07;12.40;;;6.00;;
20122;SDS011;10222;50.848;4.336;2023-09-08T08:47:33;10.82;;;5.38;;
20122;SDS011;10222;50.848;4.336;2023-09-08T08:49:59;7.93;;;4.95;;
20122;SDS011;10222;50.848;4.336;2023-09-08T08:52:26;9.90;;;5.63;;
20122;SDS011;10222;50.848;4.336;2023-09-08T08:54:52;11.02;;;5.05;;
20122;SDS011;10222;50.848;4.336;2023-09-08T08:57:19;10.40;;;5.50;;
20122;SDS011;10222;50.848;4.336;2023-09-08T08:59:46;10.18;;;5.95;;
20122;SDS011;10222;50.848;4.336;2023-09-08T09:02:13;8.48;;;4.82;;
20122;SDS011;10222;50.848;4.336;2023-09-08T09:04:39;9.38;;;5.50;;
20122;SDS011;10222;50.848;4.336;2023-09-08T09:07:06;8.93;;;6.10;;
20122;SDS011;10222;50.848;4.336;2023-09-08T09:09:32;8.85;;;5.15;;
20122;SDS011;10222;50.848;4.336;2023-09-08T09:11:59;9.80;;;5.80;;
20122;SDS011;10222;50.848;4.336;2023-09-08T09:14:27;10.45;;;5.15;;
20122;SDS011;10222;50.848;4.336;2023-09-08T09:16:55;7.10;;;5.25;;
20122;SDS011;10222;50.848;4.336;2023-09-08T09:19:22;7.35;;;4.47;;
20122;SDS011;10222;50.848;4.336;2023-09-08T09:21:57;9.55;;;5.90;;
20122;SDS011;10222;50.848;4.336;2023-09-08T09:26:56;7.55;;;5.07;;
20122;SDS011;10222;50.848;4.336;2023-09-08T09:29:22;8.50;;;5.63;;
20122;SDS011;10222;50.848;4.336;2023-09-08T09:31:52;10.85;;;5.57;;
20122;SDS011;10222;50.848;4.336;2023-09-08T09:34:18;7.57;;;5.38;;
20122;SDS011;10222;50.848;4.336;2023-09-08T09:36:45;8.82;;;5.15;;
20122;SDS011;10222;50.848;4.336;2023-09-08T09:39:13;11.10;;;5.70;;
20122;SDS011;10222;50.848;4.336;2023-09-08T09:41:39;12.82;;;5.47;;
20122;SDS011;10222;50.848;4.336;2023-09-08T09:44:06;10.93;;;5.40;;
20122;SDS011;10222;50.848;4.336;2023-09-08T09:46:33;9.48;;;5.55;;
20122;SDS011;10222;50.848;4.336;2023-09-08T09:48:59;7.00;;;5.10;;
20122;SDS011;10222;50.848;4.336;2023-09-08T09:51:25;9.02;;;4.53;;
20122;SDS011;10222;50.848;4.336;2023-09-08T09:53:51;9.80;;;5.05;;
20122;SDS011;10222;50.848;4.336;2023-09-08T09:56:19;7.53;;;4.85;;
20122;SDS011;10222;50.848;4.336;2023-09-08T09:58:45;9.38;;;4.65;;
20122;SDS011;10222;50.848;4.336;2023-09-08T10:01:12;7.57;;;4.47;;
20122;SDS011;10222;50.848;4.336;2023-09-08T10:03:39;8.20;;;4.90;;
20122;SDS011;10222;50.848;4.336;2023-09-08T10:06:05;6.35;;;4.40;;
20122;SDS011;10222;50.848;4.336;2023-09-08T10:08:33;10.63;;;4.95;;
20122;SDS011;10222;50.848;4.336;2023-09-08T10:11:06;10.00;;;4.40;;
20122;SDS011;10222;50.848;4.336;2023-09-08T10:13:33;8.68;;;4.40;;
20122;SDS011;10222;50.848;4.336;2023-09-08T10:16:05;5.35;;;3.95;;
20122;SDS011;10222;50.848;4.336;2023-09-08T10:18:31;8.63;;;4.47;;
20122;SDS011;10222;50.848;4.336;2023-09-08T10:21:00;8.90;;;4.53;;
20122;SDS011;10222;50.848;4.336;2023-09-08T10:23:40;5.45;;;4.03;;
20122;SDS011;10222;50.848;4.336;2023-09-08T10:26:11;8.10;;;4.28;;
20122;SDS011;10222;50.848;4.336;2023-09-08T10:28:37;7.03;;;4.28;;
20122;SDS011;10222;50.848;4.336;2023-09-08T10:31:04;5.25;;;3.63;;
20122;SDS011;10222;50.848;4.336;2023-09-08T10:33:30;6.38;;;3.67;;
20122;SDS011;10222;50.848;4.336;2023-09-08T10:35:57;3.60;;;2.88;;
20122;SDS011;10222;50.848;4.336;2023-09-08T10:38:27;4.18;;;3.13;;
20122;SDS011;10222;50.848;4.336;2023-09-08T10:41:25;4.85;;;3.38;;
20122;SDS011;10222;50.848;4.336;2023-09-08T10:43:40;6.55;;;3.40;;
20122;SDS011;10222;50.848;4.336;2023-09-08T10:46:11;5.80;;;3.40;;
20122;SDS011;10222;50.848;4.336;2023-09-08T10:48:46;5.85;;;3.10;;
20122;SDS011;10222;50.848;4.336;2023-09-08T10:51:17;6.28;;;3.03;;
20122;SDS011;10222;50.848;4.336;2023-09-08T10:53:43;3.70;;;2.95;;
20122;SDS011;10222;50.848;4.336;2023-09-08T10:56:12;5.32;;;2.55;;
20122;SDS011;10222;50.848;4.336;2023-09-08T10:58:38;4.22;;;2.35;;
20122;SDS011;10222;50.848;4.336;2023-09-08T11:01:07;8.68;;;2.83;;
20122;SDS011;10222;50.848;4.336;2023-09-08T11:06:04;3.95;;;2.97;;
20122;SDS011;10222;50.848;4.336;2023-09-08T11:08:30;7.70;;;3.38;;
20122;SDS011;10222;50.848;4.336;2023-09-08T11:10:56;6.00;;;2.95;;
20122;SDS011;10222;50.848;4.336;2023-09-08T11:13:22;5.32;;;2.53;;
20122;SDS011;10222;50.848;4.336;2023-09-08T11:15:52;3.53;;;2.70;;
20122;SDS011;10222;50.848;4.336;2023-09-08T11:18:25;5.85;;;2.95;;
20122;SDS011;10222;50.848;4.336;2023-09-08T11:20:52;7.95;;;3.38;;
20122;SDS011;10222;50.848;4.336;2023-09-08T11:23:18;4.80;;;2.80;;
20122;SDS011;10222;50.848;4.336;2023-09-08T11:25:44;8.23;;;2.95;;
20122;SDS011;10222;50.848;4.336;2023-09-08T11:28:10;4.72;;;2.75;;
20122;SDS011;10222;50.848;4.336;2023-09-08T11:30:38;5.60;;;2.90;;
20122;SDS011;10222;50.848;4.336;2023-09-08T11:33:11;6.53;;;3.10;;
20122;SDS011;10222;50.848;4.336;2023-09-08T11:35:39;6.20;;;3.17;;
20122;SDS011;10222;50.848;4.336;2023-09-08T11:38:05;4.72;;;3.03;;
20122;SDS011;10222;50.848;4.336;2023-09-08T11:40:31;4.55;;;2.95;;
20122;SDS011;10222;50.848;4.336;2023-09-08T11:42:59;4.57;;;2.67;;
20122;SDS011;10222;50.848;4.336;2023-09-08T11:45:25;4.38;;;3.13;;
20122;SDS011;10222;50.848;4.336;2023-09-08T11:47:52;5.47;;;2.70;;
20122;SDS011;10222;50.848;4.336;2023-09-08T11:50:19;6.55;;;2.67;;
20122;SDS011;10222;50.848;4.336;2023-09-08T11:52:48;4.63;;;2.47;;
20122;SDS011;10222;50.848;4.336;2023-09-08T11:55:14;3.50;;;2.38;;
20122;SDS011;10222;50.848;4.336;2023-09-08T11:57:40;3.65;;;2.65;;
20122;SDS011;10222;50.848;4.336;2023-09-08T12:00:07;3.33;;;2.50;;
20122;SDS011;10222;50.848;4.336;2023-09-08T12:02:38;4.53;;;2.35;;
20122;SDS011;10222;50.848;4.336;2023-09-08T12:05:04;5.72;;;3.35;;
20122;SDS011;10222;50.848;4.336;2023-09-08T12:07:31;4.32;;;2.58;;
20122;SDS011;10222;50.848;4.336;2023-09-08T12:09:57;7.35;;;3.17;;
20122;SDS011;10222;50.848;4.336;2023-09-08T12:12:24;4.10;;;2.58;;
20122;SDS011;10222;50.848;4.336;2023-09-08T12:14:50;4.22;;;2.70;;
20122;SDS011;10222;50.848;4.336;2023-09-08T12:17:16;7.32;;;2.85;;
20122;SDS011;10222;50.848;4.336;2023-09-08T12:19:43;6.28;;;3.30;;
20122;SDS011;10222;50.848;4.336;2023-09-08T12:22:09;6.00;;;2.28;;
20122;SDS011;10222;50.848;4.336;2023-09-08T12:27:21;5.97;;;3.05;;
20122;SDS011;10222;50.848;4.336;2023-09-08T12:29:58;3.78;;;2.47;;
20122;SDS011;10222;50.848;4.336;2023-09-08T12:32:30;5.80;;;2.88;;
20122;SDS011;10222;50.848;4.336;2023-09-08T12:34:56;5.32;;;3.50;;
20122;SDS011;10222;50.848;4.336;2023-09-08T12:37:24;4.88;;;2.72;;
20122;SDS011;10222;50.848;4.336;2023-09-08T12:39:52;6.78;;;2.70;;
20122;SDS011;10222;50.848;4.336;2023-09-08T12:42:18;7.47;;;2.65;;
20122;SDS011;10222;50.848;4.336;2023-09-08T12:44:44;2.75;;;2.22;;
20122;SDS011;10222;50.848;4.336;2023-09-08T12:47:11;10.43;;;2.80;;
20122;SDS011;10222;50.848;4.336;2023-09-08T12:49:37;6.78;;;2.58;;
20122;SDS011;10222;50.848;4.336;2023-09-08T12:52:03;7.80;;;3.70;;
20122;SDS011;10222;50.848;4.336;2023-09-08T12:54:29;9.52;;;2.70;;
20122;SDS011;10222;50.848;4.336;2023-09-08T12:56:55;3.85;;;2.00;;
20122;SDS011;10222;50.848;4.336;2023-09-08T12:59:21;4.28;;;2.22;;
20122;SDS011;10222;50.848;4.336;2023-09-08T13:01:47;7.93;;;3.38;;
20122;SDS011;10222;50.848;4.336;2023-09-08T13:04:13;4.07;;;2.63;;
20122;SDS011;10222;50.848;4.336;2023-09-08T13:06:39;7.55;;;2.60;;
20122;SDS011;10222;50.848;4.336;2023-09-08T13:09:05;4.72;;;2.65;;
20122;SDS011;10222;50.848;4.336;2023-09-08T13:11:33;6.82;;;3.00;;
20122;SDS011;10222;50.848;4.336;2023-09-08T13:13:59;5.32;;;2.30;;
20122;SDS011;10222;50.848;4.336;2023-09-08T13:16:25;7.28;;;2.40;;
20122;SDS011;10222;50.848;4.336;2023-09-08T13:18:51;5.80;;;2.47;;
20122;SDS011;10222;50.848;4.336;2023-09-08T13:21:17;5.32;;;2.65;;
20122;SDS011;10222;50.848;4.336;2023-09-08T13:23:43;5.65;;;2.58;;
20122;SDS011;10222;50.848;4.336;2023-09-08T13:26:09;5.38;;;2.80;;
20122;SDS011;10222;50.848;4.336;2023-09-08T13:28:35;4.40;;;2.60;;
20122;SDS011;10222;50.848;4.336;2023-09-08T13:31:01;10.73;;;2.85;;
20122;SDS011;10222;50.848;4.336;2023-09-08T13:33:27;6.00;;;2.67;;
20122;SDS011;10222;50.848;4.336;2023-09-08T13:35:53;5.68;;;2.08;;
20122;SDS011;10222;50.848;4.336;2023-09-08T13:38:19;4.60;;;2.25;;
20122;SDS011;10222;50.848;4.336;2023-09-08T13:40:46;7.68;;;2.50;;
20122;SDS011;10222;50.848;4.336;2023-09-08T13:43:11;5.13;;;2.42;;
20122;SDS011;10222;50.848;4.336;2023-09-08T13:45:38;10.15;;;2.60;;
20122;SDS011;10222;50.848;4.336;2023-09-08T13:48:07;4.55;;;2.40;;
20122;SDS011;10222;50.848;4.336;2023-09-08T13:50:33;5.85;;;2.97;;
20122;SDS011;10222;50.848;4.336;2023-09-08T13:52:59;4.93;;;2.80;;
20122;SDS011;10222;50.848;4.336;2023-09-08T13:55:25;6.90;;;2.47;;
20122;SDS011;10222;50.848;4.336;2023-09-08T13:57:51;3.97;;;2.70;;
20122;SDS011;10222;50.848;4.336;2023-09-08T14:00:17;9.15;;;2.60;;
20122;SDS011;10222;50.848;4.336;2023-09-08T14:02:44;8.52;;;3.17;;
20122;SDS011;10222;50.848;4.336;2023-09-08T14:05:10;9.48;;;2.88;;
20122;SDS011;10222;50.848;4.336;2023-09-08T14:07:36;8.50;;;3.05;;
20122;SDS011;10222;50.848;4.336;2023-09-08T14:10:03;7.28;;;2.38;;
20122;SDS011;10222;50.848;4.336;2023-09-08T14:12:32;7.25;;;2.55;;
20122;SDS011;10222;50.848;4.336;2023-09-08T14:14:58;7.10;;;2.90;;
20122;SDS011;10222;50.848;4.336;2023-09-08T14:17:24;7.97;;;2.92;;
20122;SDS011;10222;50.848;4.336;2023-09-08T14:19:50;9.38;;;3.28;;
20122;SDS011;10222;50.848;4.336;2023-09-08T14:22:16;10.32;;;2.72;;
20122;SDS011;10222;50.848;4.336;2023-09-08T14:24:42;4.85;;;2.70;;
20122;SDS011;10222;50.848;4.336;2023-09-08T14:27:08;6.35;;;2.95;;
20122;SDS011;10222;50.848;4.336;2023-09-08T14:29:34;9.43;;;2.92;;
20122;SDS011;10222;50.848;4.336;2023-09-08T14:32:01;6.97;;;2.97;;
20122;SDS011;10222;50.848;4.336;2023-09-08T14:34:28;5.78;;;2.60;;
20122;SDS011;10222;50.848;4.336;2023-09-08T14:36:54;7.57;;;2.80;;
20122;SDS011;10222;50.848;4.336;2023-09-08T14:39:20;6.95;;;2.90;;
20122;SDS011;10222;50.848;4.336;2023-09-08T14:41:48;9.00;;;2.53;;
20122;SDS011;10222;50.848;4.336;2023-09-08T14:44:15;6.43;;;2.70;;
20122;SDS011;10222;50.848;4.336;2023-09-08T14:46:42;11.45;;;3.00;;
20122;SDS011;10222;50.848;4.336;2023-09-08T14:49:08;7.32;;;2.80;;
20122;SDS011;10222;50.848;4.336;2023-09-08T14:51:33;6.57;;;3.00;;
20122;SDS011;10222;50.848;4.336;2023-09-08T14:53:59;5.65;;;2.88;;